sensor_id;sensor_type;location;lat;lon;timestamp;temperature;humidity
43894;DHT22;29556;50.846;4.442;2023-02-01T00:02:04;8.90;91.10
43894;DHT22;29556;50.846;4.442;2023-02-01T00:04:29;9.10;91.20
43894;DHT22;29556;50.846;4.442;2023-02-01T00:06:55;9.00;91.10
43894;DHT22;29556;50.846;4.442;2023-02-01T00:09:21;9.00;91.10
43894;DHT22;29556;50.846;4.442;2023-02-01T00:11:47;9.10;91.10
43894;DHT22;29556;50.846;4.442;2023-02-01T00:14:13;9.10;91.10
43894;DHT22;29556;50.846;4.442;2023-02-01T00:16:39;9.10;91.10
43894;DHT22;29556;50.846;4.442;2023-02-01T00:19:09;9.10;91.20
43894;DHT22;29556;50.846;4.442;2023-02-01T00:21:35;9.00;91.10
43894;DHT22;29556;50.846;4.442;2023-02-01T00:24:01;9.00;91.00
43894;DHT22;29556;50.846;4.442;2023-02-01T00:26:33;9.00;91.00
43894;DHT22;29556;50.846;4.442;2023-02-01T00:29:00;9.00;91.10
43894;DHT22;29556;50.846;4.442;2023-02-01T00:31:28;9.00;91.10
43894;DHT22;29556;50.846;4.442;2023-02-01T00:33:54;8.90;91.30
43894;DHT22;29556;50.846;4.442;2023-02-01T00:36:20;8.90;91.40
43894;DHT22;29556;50.846;4.442;2023-02-01T00:38:45;8.90;91.40
43894;DHT22;29556;50.846;4.442;2023-02-01T00:41:13;8.90;91.40
43894;DHT22;29556;50.846;4.442;2023-02-01T00:43:41;9.00;91.30
43894;DHT22;29556;50.846;4.442;2023-02-01T00:46:08;9.00;91.10
43894;DHT22;29556;50.846;4.442;2023-02-01T00:48:34;9.00;91.10
43894;DHT22;29556;50.846;4.442;2023-02-01T00:51:01;9.10;91.10
43894;DHT22;29556;50.846;4.442;2023-02-01T00:53:29;9.00;90.90
43894;DHT22;29556;50.846;4.442;2023-02-01T00:55:57;9.00;91.10
43894;DHT22;29556;50.846;4.442;2023-02-01T00:58:23;9.00;90.60
43894;DHT22;29556;50.846;4.442;2023-02-01T01:01:03;9.10;90.50
43894;DHT22;29556;50.846;4.442;2023-02-01T01:03:30;9.00;90.60
43894;DHT22;29556;50.846;4.442;2023-02-01T01:06:00;9.00;90.20
43894;DHT22;29556;50.846;4.442;2023-02-01T01:08:26;9.00;90.10
43894;DHT22;29556;50.846;4.442;2023-02-01T01:10:52;9.10;89.90
43894;DHT22;29556;50.846;4.442;2023-02-01T01:13:18;9.00;89.50
43894;DHT22;29556;50.846;4.442;2023-02-01T01:15:44;9.00;89.50
43894;DHT22;29556;50.846;4.442;2023-02-01T01:18:10;8.90;89.50
43894;DHT22;29556;50.846;4.442;2023-02-01T01:20:38;8.90;89.40
43894;DHT22;29556;50.846;4.442;2023-02-01T01:23:04;9.00;89.60
43894;DHT22;29556;50.846;4.442;2023-02-01T01:25:30;8.80;89.40
43894;DHT22;29556;50.846;4.442;2023-02-01T01:27:57;9.00;89.40
43894;DHT22;29556;50.846;4.442;2023-02-01T01:30:23;8.80;89.20
43894;DHT22;29556;50.846;4.442;2023-02-01T01:32:48;8.90;88.90
43894;DHT22;29556;50.846;4.442;2023-02-01T01:35:14;8.80;88.60
43894;DHT22;29556;50.846;4.442;2023-02-01T01:37:40;8.70;88.40
43894;DHT22;29556;50.846;4.442;2023-02-01T01:40:07;8.80;88.50
43894;DHT22;29556;50.846;4.442;2023-02-01T01:42:41;8.70;87.80
43894;DHT22;29556;50.846;4.442;2023-02-01T01:47:56;8.80;87.20
43894;DHT22;29556;50.846;4.442;2023-02-01T01:50:50;8.70;86.60
43894;DHT22;29556;50.846;4.442;2023-02-01T01:53:25;8.60;86.10
43894;DHT22;29556;50.846;4.442;2023-02-01T01:55:53;8.60;85.80
43894;DHT22;29556;50.846;4.442;2023-02-01T01:58:25;8.60;85.50
43894;DHT22;29556;50.846;4.442;2023-02-01T02:00:52;8.70;85.10
43894;DHT22;29556;50.846;4.442;2023-02-01T02:03:25;8.60;85.00
43894;DHT22;29556;50.846;4.442;2023-02-01T02:05:54;8.70;84.80
43894;DHT22;29556;50.846;4.442;2023-02-01T02:08:22;8.70;83.80
43894;DHT22;29556;50.846;4.442;2023-02-01T02:10:48;8.60;83.70
43894;DHT22;29556;50.846;4.442;2023-02-01T02:13:46;8.60;83.20
43894;DHT22;29556;50.846;4.442;2023-02-01T02:17:02;8.70;83.20
43894;DHT22;29556;50.846;4.442;2023-02-01T02:30:09;8.40;82.10
43894;DHT22;29556;50.846;4.442;2023-02-01T02:38:09;8.50;82.20
43894;DHT22;29556;50.846;4.442;2023-02-01T02:40:48;8.50;81.60
43894;DHT22;29556;50.846;4.442;2023-02-01T02:43:37;8.50;81.60
43894;DHT22;29556;50.846;4.442;2023-02-01T02:46:44;8.50;81.90
43894;DHT22;29556;50.846;4.442;2023-02-01T02:49:38;8.60;81.70
43894;DHT22;29556;50.846;4.442;2023-02-01T02:54:55;8.70;81.70
43894;DHT22;29556;50.846;4.442;2023-02-01T02:57:30;8.70;81.40
43894;DHT22;29556;50.846;4.442;2023-02-01T03:00:18;8.60;81.70
43894;DHT22;29556;50.846;4.442;2023-02-01T03:03:04;8.50;81.10
43894;DHT22;29556;50.846;4.442;2023-02-01T03:05:49;8.50;80.70
43894;DHT22;29556;50.846;4.442;2023-02-01T03:08:27;8.50;80.40
43894;DHT22;29556;50.846;4.442;2023-02-01T03:11:13;8.40;80.60
43894;DHT22;29556;50.846;4.442;2023-02-01T03:19:03;8.30;80.60
43894;DHT22;29556;50.846;4.442;2023-02-01T03:21:39;8.30;80.70
43894;DHT22;29556;50.846;4.442;2023-02-01T03:24:12;8.30;80.80
43894;DHT22;29556;50.846;4.442;2023-02-01T03:26:45;8.30;80.70
43894;DHT22;29556;50.846;4.442;2023-02-01T03:29:23;8.30;80.70
43894;DHT22;29556;50.846;4.442;2023-02-01T03:31:50;8.40;80.80
43894;DHT22;29556;50.846;4.442;2023-02-01T03:34:17;8.20;80.60
43894;DHT22;29556;50.846;4.442;2023-02-01T03:36:52;8.20;80.60
43894;DHT22;29556;50.846;4.442;2023-02-01T03:39:36;8.30;80.80
43894;DHT22;29556;50.846;4.442;2023-02-01T03:42:08;8.20;81.00
43894;DHT22;29556;50.846;4.442;2023-02-01T03:47:14;8.20;80.80
43894;DHT22;29556;50.846;4.442;2023-02-01T03:50:12;8.20;80.80
43894;DHT22;29556;50.846;4.442;2023-02-01T03:52:44;8.20;80.70
43894;DHT22;29556;50.846;4.442;2023-02-01T03:55:13;8.30;80.60
43894;DHT22;29556;50.846;4.442;2023-02-01T03:57:44;8.20;80.90
43894;DHT22;29556;50.846;4.442;2023-02-01T04:00:23;8.10;81.50
43894;DHT22;29556;50.846;4.442;2023-02-01T04:02:50;8.20;81.10
43894;DHT22;29556;50.846;4.442;2023-02-01T04:05:16;8.10;81.10
43894;DHT22;29556;50.846;4.442;2023-02-01T04:07:47;8.10;81.00
43894;DHT22;29556;50.846;4.442;2023-02-01T04:10:12;8.10;81.10
43894;DHT22;29556;50.846;4.442;2023-02-01T04:12:38;8.00;81.10
43894;DHT22;29556;50.846;4.442;2023-02-01T04:15:04;8.00;81.20
43894;DHT22;29556;50.846;4.442;2023-02-01T04:17:31;7.90;81.20
43894;DHT22;29556;50.846;4.442;2023-02-01T04:19:57;8.00;81.30
43894;DHT22;29556;50.846;4.442;2023-02-01T04:22:22;7.90;81.40
43894;DHT22;29556;50.846;4.442;2023-02-01T04:24:48;7.80;81.40
43894;DHT22;29556;50.846;4.442;2023-02-01T04:27:14;7.80;81.50
43894;DHT22;29556;50.846;4.442;2023-02-01T04:29:39;7.80;81.70
43894;DHT22;29556;50.846;4.442;2023-02-01T04:32:06;7.90;81.70
43894;DHT22;29556;50.846;4.442;2023-02-01T04:34:36;7.80;81.50
43894;DHT22;29556;50.846;4.442;2023-02-01T04:37:02;7.80;81.70
43894;DHT22;29556;50.846;4.442;2023-02-01T04:39:30;7.70;81.70
43894;DHT22;29556;50.846;4.442;2023-02-01T04:41:56;7.70;81.90
43894;DHT22;29556;50.846;4.442;2023-02-01T04:44:21;7.60;81.80
43894;DHT22;29556;50.846;4.442;2023-02-01T04:46:47;7.60;82.00
43894;DHT22;29556;50.846;4.442;2023-02-01T04:49:13;7.50;82.10
43894;DHT22;29556;50.846;4.442;2023-02-01T04:51:40;7.60;82.30
43894;DHT22;29556;50.846;4.442;2023-02-01T04:54:06;7.60;82.20
43894;DHT22;29556;50.846;4.442;2023-02-01T04:56:31;7.70;82.20
43894;DHT22;29556;50.846;4.442;2023-02-01T04:58:57;7.60;82.00
43894;DHT22;29556;50.846;4.442;2023-02-01T05:01:23;7.60;82.00
43894;DHT22;29556;50.846;4.442;2023-02-01T05:03:50;7.60;82.00
43894;DHT22;29556;50.846;4.442;2023-02-01T05:06:16;7.60;82.20
43894;DHT22;29556;50.846;4.442;2023-02-01T05:08:42;7.50;82.20
43894;DHT22;29556;50.846;4.442;2023-02-01T05:11:07;7.60;82.10
43894;DHT22;29556;50.846;4.442;2023-02-01T05:13:53;7.50;82.10
43894;DHT22;29556;50.846;4.442;2023-02-01T05:16:18;7.40;82.30
43894;DHT22;29556;50.846;4.442;2023-02-01T05:18:46;7.50;82.40
43894;DHT22;29556;50.846;4.442;2023-02-01T05:21:12;7.40;82.20
43894;DHT22;29556;50.846;4.442;2023-02-01T05:23:38;7.40;82.30
43894;DHT22;29556;50.846;4.442;2023-02-01T05:26:23;7.40;82.30
43894;DHT22;29556;50.846;4.442;2023-02-01T05:28:48;7.30;82.60
43894;DHT22;29556;50.846;4.442;2023-02-01T05:31:14;7.30;82.70
43894;DHT22;29556;50.846;4.442;2023-02-01T05:33:39;7.30;82.80
43894;DHT22;29556;50.846;4.442;2023-02-01T05:36:05;7.40;82.90
43894;DHT22;29556;50.846;4.442;2023-02-01T05:38:31;7.30;82.70
43894;DHT22;29556;50.846;4.442;2023-02-01T05:40:57;7.40;82.60
43894;DHT22;29556;50.846;4.442;2023-02-01T05:43:22;7.30;83.20
43894;DHT22;29556;50.846;4.442;2023-02-01T05:45:48;7.30;82.40
43894;DHT22;29556;50.846;4.442;2023-02-01T05:48:14;7.20;82.70
43894;DHT22;29556;50.846;4.442;2023-02-01T05:50:39;7.20;82.80
43894;DHT22;29556;50.846;4.442;2023-02-01T05:53:05;7.20;83.00
43894;DHT22;29556;50.846;4.442;2023-02-01T05:55:33;7.20;83.00
43894;DHT22;29556;50.846;4.442;2023-02-01T05:57:59;7.10;83.00
43894;DHT22;29556;50.846;4.442;2023-02-01T06:00:25;7.10;83.20
43894;DHT22;29556;50.846;4.442;2023-02-01T06:02:51;7.00;83.50
43894;DHT22;29556;50.846;4.442;2023-02-01T06:05:17;6.90;83.50
43894;DHT22;29556;50.846;4.442;2023-02-01T06:07:42;6.90;83.50
43894;DHT22;29556;50.846;4.442;2023-02-01T06:10:09;6.90;83.70
43894;DHT22;29556;50.846;4.442;2023-02-01T06:12:35;6.90;83.80
43894;DHT22;29556;50.846;4.442;2023-02-01T06:15:01;6.90;83.70
43894;DHT22;29556;50.846;4.442;2023-02-01T06:17:26;6.90;83.80
43894;DHT22;29556;50.846;4.442;2023-02-01T06:19:52;6.90;83.70
43894;DHT22;29556;50.846;4.442;2023-02-01T06:22:17;6.90;83.80
43894;DHT22;29556;50.846;4.442;2023-02-01T06:24:44;7.10;84.00
43894;DHT22;29556;50.846;4.442;2023-02-01T06:27:13;6.90;84.00
43894;DHT22;29556;50.846;4.442;2023-02-01T06:29:41;6.90;83.80
43894;DHT22;29556;50.846;4.442;2023-02-01T06:32:07;6.90;83.80
43894;DHT22;29556;50.846;4.442;2023-02-01T06:34:34;6.90;83.90
43894;DHT22;29556;50.846;4.442;2023-02-01T06:37:00;6.90;83.90
43894;DHT22;29556;50.846;4.442;2023-02-01T06:39:25;6.90;83.80
43894;DHT22;29556;50.846;4.442;2023-02-01T06:41:52;6.90;84.10
43894;DHT22;29556;50.846;4.442;2023-02-01T06:44:18;6.80;84.20
43894;DHT22;29556;50.846;4.442;2023-02-01T06:46:44;6.90;84.30
43894;DHT22;29556;50.846;4.442;2023-02-01T06:49:12;6.90;84.20
43894;DHT22;29556;50.846;4.442;2023-02-01T06:51:37;6.90;84.00
43894;DHT22;29556;50.846;4.442;2023-02-01T06:54:03;6.90;84.00
43894;DHT22;29556;50.846;4.442;2023-02-01T06:56:29;6.90;84.20
43894;DHT22;29556;50.846;4.442;2023-02-01T06:58:56;6.80;84.20
43894;DHT22;29556;50.846;4.442;2023-02-01T07:01:22;6.90;84.20
43894;DHT22;29556;50.846;4.442;2023-02-01T07:03:49;6.90;84.10
43894;DHT22;29556;50.846;4.442;2023-02-01T07:06:18;6.90;84.10
43894;DHT22;29556;50.846;4.442;2023-02-01T07:08:45;6.90;84.40
43894;DHT22;29556;50.846;4.442;2023-02-01T07:11:13;6.90;84.50
43894;DHT22;29556;50.846;4.442;2023-02-01T07:13:39;6.80;84.40
43894;DHT22;29556;50.846;4.442;2023-02-01T07:16:09;6.90;84.30
43894;DHT22;29556;50.846;4.442;2023-02-01T07:18:35;6.90;84.30
43894;DHT22;29556;50.846;4.442;2023-02-01T07:21:01;6.80;84.40
43894;DHT22;29556;50.846;4.442;2023-02-01T07:23:27;6.90;84.40
43894;DHT22;29556;50.846;4.442;2023-02-01T07:25:56;6.80;84.30
43894;DHT22;29556;50.846;4.442;2023-02-01T07:28:23;6.90;84.40
43894;DHT22;29556;50.846;4.442;2023-02-01T07:30:49;6.80;84.20
43894;DHT22;29556;50.846;4.442;2023-02-01T07:33:21;6.80;84.20
43894;DHT22;29556;50.846;4.442;2023-02-01T07:35:48;6.80;84.50
43894;DHT22;29556;50.846;4.442;2023-02-01T07:38:14;6.80;84.50
43894;DHT22;29556;50.846;4.442;2023-02-01T07:40:40;6.80;84.60
43894;DHT22;29556;50.846;4.442;2023-02-01T07:43:06;6.80;84.70
43894;DHT22;29556;50.846;4.442;2023-02-01T07:45:34;6.80;84.60
43894;DHT22;29556;50.846;4.442;2023-02-01T07:48:00;6.80;84.60
43894;DHT22;29556;50.846;4.442;2023-02-01T07:50:26;6.90;84.70
43894;DHT22;29556;50.846;4.442;2023-02-01T07:52:52;6.90;84.70
43894;DHT22;29556;50.846;4.442;2023-02-01T07:55:19;6.90;84.60
43894;DHT22;29556;50.846;4.442;2023-02-01T07:57:47;6.90;84.50
43894;DHT22;29556;50.846;4.442;2023-02-01T08:00:13;7.00;84.50
43894;DHT22;29556;50.846;4.442;2023-02-01T08:02:58;7.00;84.30
43894;DHT22;29556;50.846;4.442;2023-02-01T08:05:28;7.10;84.60
43894;DHT22;29556;50.846;4.442;2023-02-01T08:07:54;7.00;84.60
43894;DHT22;29556;50.846;4.442;2023-02-01T08:10:20;7.00;84.50
43894;DHT22;29556;50.846;4.442;2023-02-01T08:12:48;7.10;84.40
43894;DHT22;29556;50.846;4.442;2023-02-01T08:15:17;7.30;84.10
43894;DHT22;29556;50.846;4.442;2023-02-01T08:17:52;7.20;84.10
43894;DHT22;29556;50.846;4.442;2023-02-01T08:20:20;7.20;84.10
43894;DHT22;29556;50.846;4.442;2023-02-01T08:22:50;7.20;84.10
43894;DHT22;29556;50.846;4.442;2023-02-01T08:25:16;7.20;83.80
43894;DHT22;29556;50.846;4.442;2023-02-01T08:27:42;7.20;83.80
43894;DHT22;29556;50.846;4.442;2023-02-01T08:30:09;7.20;83.80
43894;DHT22;29556;50.846;4.442;2023-02-01T08:32:35;7.20;83.80
43894;DHT22;29556;50.846;4.442;2023-02-01T08:35:01;7.30;83.90
43894;DHT22;29556;50.846;4.442;2023-02-01T08:37:27;7.50;83.60
43894;DHT22;29556;50.846;4.442;2023-02-01T08:39:52;7.30;83.60
43894;DHT22;29556;50.846;4.442;2023-02-01T08:42:18;7.30;83.50
43894;DHT22;29556;50.846;4.442;2023-02-01T08:45:03;7.40;83.50
43894;DHT22;29556;50.846;4.442;2023-02-01T08:47:30;7.40;83.30
43894;DHT22;29556;50.846;4.442;2023-02-01T08:49:58;7.40;83.20
43894;DHT22;29556;50.846;4.442;2023-02-01T08:52:23;7.50;83.40
43894;DHT22;29556;50.846;4.442;2023-02-01T08:54:49;7.40;83.20
43894;DHT22;29556;50.846;4.442;2023-02-01T08:57:15;7.50;83.30
43894;DHT22;29556;50.846;4.442;2023-02-01T08:59:40;7.60;83.20
43894;DHT22;29556;50.846;4.442;2023-02-01T09:02:10;7.50;83.10
43894;DHT22;29556;50.846;4.442;2023-02-01T09:04:37;7.60;83.00
43894;DHT22;29556;50.846;4.442;2023-02-01T09:07:05;7.60;82.80
43894;DHT22;29556;50.846;4.442;2023-02-01T09:09:31;7.60;82.50
43894;DHT22;29556;50.846;4.442;2023-02-01T09:11:56;7.60;82.50
43894;DHT22;29556;50.846;4.442;2023-02-01T09:14:22;7.60;82.70
43894;DHT22;29556;50.846;4.442;2023-02-01T09:16:48;7.60;82.80
43894;DHT22;29556;50.846;4.442;2023-02-01T09:19:14;7.60;82.70
43894;DHT22;29556;50.846;4.442;2023-02-01T09:21:40;7.60;82.60
43894;DHT22;29556;50.846;4.442;2023-02-01T09:24:06;7.70;82.60
43894;DHT22;29556;50.846;4.442;2023-02-01T09:26:32;7.70;82.40
43894;DHT22;29556;50.846;4.442;2023-02-01T09:28:59;7.70;82.40
43894;DHT22;29556;50.846;4.442;2023-02-01T09:31:27;7.80;82.40
43894;DHT22;29556;50.846;4.442;2023-02-01T09:33:53;7.80;82.40
43894;DHT22;29556;50.846;4.442;2023-02-01T09:36:22;7.80;82.30
43894;DHT22;29556;50.846;4.442;2023-02-01T09:38:49;7.80;82.20
43894;DHT22;29556;50.846;4.442;2023-02-01T09:47:17;7.80;82.30
43894;DHT22;29556;50.846;4.442;2023-02-01T09:50:02;7.80;82.10
43894;DHT22;29556;50.846;4.442;2023-02-01T09:52:45;7.90;82.30
43894;DHT22;29556;50.846;4.442;2023-02-01T09:55:20;7.90;82.30
43894;DHT22;29556;50.846;4.442;2023-02-01T09:58:00;8.10;82.40
43894;DHT22;29556;50.846;4.442;2023-02-01T10:00:30;8.00;81.80
43894;DHT22;29556;50.846;4.442;2023-02-01T10:02:56;8.20;82.00
43894;DHT22;29556;50.846;4.442;2023-02-01T10:10:58;8.10;81.50
43894;DHT22;29556;50.846;4.442;2023-02-01T10:16:44;8.20;81.30
43894;DHT22;29556;50.846;4.442;2023-02-01T10:21:54;8.30;80.80
43894;DHT22;29556;50.846;4.442;2023-02-01T10:29:49;8.40;80.00
43894;DHT22;29556;50.846;4.442;2023-02-01T10:32:21;8.40;79.80
43894;DHT22;29556;50.846;4.442;2023-02-01T10:35:13;8.50;79.80
43894;DHT22;29556;50.846;4.442;2023-02-01T10:37:41;8.50;79.20
43894;DHT22;29556;50.846;4.442;2023-02-01T10:40:23;8.50;79.20
43894;DHT22;29556;50.846;4.442;2023-02-01T10:42:54;8.40;79.20
43894;DHT22;29556;50.846;4.442;2023-02-01T10:45:22;8.50;79.70
43894;DHT22;29556;50.846;4.442;2023-02-01T10:47:53;8.50;78.80
43894;DHT22;29556;50.846;4.442;2023-02-01T10:50:41;8.60;78.50
43894;DHT22;29556;50.846;4.442;2023-02-01T10:53:11;8.70;78.30
43894;DHT22;29556;50.846;4.442;2023-02-01T10:55:41;8.70;77.80
43894;DHT22;29556;50.846;4.442;2023-02-01T10:58:27;8.80;77.90
43894;DHT22;29556;50.846;4.442;2023-02-01T11:00:56;8.80;77.60
43894;DHT22;29556;50.846;4.442;2023-02-01T11:03:39;8.80;76.80
43894;DHT22;29556;50.846;4.442;2023-02-01T11:08:58;8.90;76.40
43894;DHT22;29556;50.846;4.442;2023-02-01T11:11:25;9.00;76.20
43894;DHT22;29556;50.846;4.442;2023-02-01T11:16:23;9.30;76.30
43894;DHT22;29556;50.846;4.442;2023-02-01T11:18:54;9.20;75.40
43894;DHT22;29556;50.846;4.442;2023-02-01T11:21:23;9.30;75.00
43894;DHT22;29556;50.846;4.442;2023-02-01T11:23:49;9.30;75.50
43894;DHT22;29556;50.846;4.442;2023-02-01T11:26:25;9.40;74.60
43894;DHT22;29556;50.846;4.442;2023-02-01T11:29:02;9.50;74.30
43894;DHT22;29556;50.846;4.442;2023-02-01T11:31:28;9.80;74.40
43894;DHT22;29556;50.846;4.442;2023-02-01T11:33:59;9.80;73.70
43894;DHT22;29556;50.846;4.442;2023-02-01T11:36:30;9.70;73.20
43894;DHT22;29556;50.846;4.442;2023-02-01T11:44:35;9.80;72.90
43894;DHT22;29556;50.846;4.442;2023-02-01T11:49:47;9.80;72.30
43894;DHT22;29556;50.846;4.442;2023-02-01T11:52:39;9.70;72.80
43894;DHT22;29556;50.846;4.442;2023-02-01T11:55:34;9.70;72.40
43894;DHT22;29556;50.846;4.442;2023-02-01T12:01:04;9.50;72.50
43894;DHT22;29556;50.846;4.442;2023-02-01T12:09:12;10.00;71.10
43894;DHT22;29556;50.846;4.442;2023-02-01T12:20:21;10.30;68.30
43894;DHT22;29556;50.846;4.442;2023-02-01T12:23:17;10.30;68.40
43894;DHT22;29556;50.846;4.442;2023-02-01T12:37:14;10.70;66.30
43894;DHT22;29556;50.846;4.442;2023-02-01T12:42:22;10.70;65.20
43894;DHT22;29556;50.846;4.442;2023-02-01T12:44:50;10.70;65.30
43894;DHT22;29556;50.846;4.442;2023-02-01T12:47:48;10.70;65.30
43894;DHT22;29556;50.846;4.442;2023-02-01T12:50:25;10.80;65.00
43894;DHT22;29556;50.846;4.442;2023-02-01T12:52:55;10.70;65.20
43894;DHT22;29556;50.846;4.442;2023-02-01T12:55:39;10.70;64.20
43894;DHT22;29556;50.846;4.442;2023-02-01T12:58:18;10.70;63.90
43894;DHT22;29556;50.846;4.442;2023-02-01T13:00:51;10.80;64.40
43894;DHT22;29556;50.846;4.442;2023-02-01T13:06:10;11.20;64.40
43894;DHT22;29556;50.846;4.442;2023-02-01T13:08:53;11.10;63.50
43894;DHT22;29556;50.846;4.442;2023-02-01T13:11:29;11.20;64.00
43894;DHT22;29556;50.846;4.442;2023-02-01T13:16:48;11.30;62.60
43894;DHT22;29556;50.846;4.442;2023-02-01T13:19:19;11.50;62.90
43894;DHT22;29556;50.846;4.442;2023-02-01T13:21:46;11.50;62.50
43894;DHT22;29556;50.846;4.442;2023-02-01T13:24:23;11.60;62.00
43894;DHT22;29556;50.846;4.442;2023-02-01T13:26:53;11.70;61.90
43894;DHT22;29556;50.846;4.442;2023-02-01T13:29:19;11.50;60.40
43894;DHT22;29556;50.846;4.442;2023-02-01T13:32:11;11.60;61.50
43894;DHT22;29556;50.846;4.442;2023-02-01T13:37:47;11.60;61.10
43894;DHT22;29556;50.846;4.442;2023-02-01T13:43:18;11.50;60.80
43894;DHT22;29556;50.846;4.442;2023-02-01T13:45:55;11.50;60.60
43894;DHT22;29556;50.846;4.442;2023-02-01T13:48:45;11.50;60.90
43894;DHT22;29556;50.846;4.442;2023-02-01T13:51:13;11.60;61.10
43894;DHT22;29556;50.846;4.442;2023-02-01T13:53:46;11.60;61.50
43894;DHT22;29556;50.846;4.442;2023-02-01T13:56:18;11.70;60.80
43894;DHT22;29556;50.846;4.442;2023-02-01T13:58:47;11.60;60.30
43894;DHT22;29556;50.846;4.442;2023-02-01T14:04:00;11.50;61.10
43894;DHT22;29556;50.846;4.442;2023-02-01T14:16:43;11.40;61.70
43894;DHT22;29556;50.846;4.442;2023-02-01T14:19:20;11.40;62.30
43894;DHT22;29556;50.846;4.442;2023-02-01T14:21:52;11.30;62.50
43894;DHT22;29556;50.846;4.442;2023-02-01T14:24:40;11.20;62.50
43894;DHT22;29556;50.846;4.442;2023-02-01T14:29:43;11.10;63.30
43894;DHT22;29556;50.846;4.442;2023-02-01T14:32:37;11.20;63.60
43894;DHT22;29556;50.846;4.442;2023-02-01T14:35:07;11.10;63.40
43894;DHT22;29556;50.846;4.442;2023-02-01T14:37:40;11.10;63.70
43894;DHT22;29556;50.846;4.442;2023-02-01T14:47:48;11.10;63.70
43894;DHT22;29556;50.846;4.442;2023-02-01T14:55:30;11.00;64.40
43894;DHT22;29556;50.846;4.442;2023-02-01T14:58:05;11.00;64.50
43894;DHT22;29556;50.846;4.442;2023-02-01T15:00:34;10.90;65.10
43894;DHT22;29556;50.846;4.442;2023-02-01T15:03:32;10.90;65.20
43894;DHT22;29556;50.846;4.442;2023-02-01T15:05:59;11.00;65.90
43894;DHT22;29556;50.846;4.442;2023-02-01T15:08:33;11.00;65.70
43894;DHT22;29556;50.846;4.442;2023-02-01T15:11:02;11.00;65.70
43894;DHT22;29556;50.846;4.442;2023-02-01T15:13:32;11.10;65.80
43894;DHT22;29556;50.846;4.442;2023-02-01T15:18:27;11.10;66.10
43894;DHT22;29556;50.846;4.442;2023-02-01T15:20:58;11.10;65.90
43894;DHT22;29556;50.846;4.442;2023-02-01T15:23:26;11.00;66.40
43894;DHT22;29556;50.846;4.442;2023-02-01T15:25:55;11.00;66.40
43894;DHT22;29556;50.846;4.442;2023-02-01T15:28:21;11.00;66.60
43894;DHT22;29556;50.846;4.442;2023-02-01T15:31:01;10.90;66.80
43894;DHT22;29556;50.846;4.442;2023-02-01T15:33:27;10.80;67.20
43894;DHT22;29556;50.846;4.442;2023-02-01T15:36:19;10.90;68.10
43894;DHT22;29556;50.846;4.442;2023-02-01T15:38:47;10.80;67.40
43894;DHT22;29556;50.846;4.442;2023-02-01T15:41:19;10.80;67.70
43894;DHT22;29556;50.846;4.442;2023-02-01T15:46:37;10.80;67.90
43894;DHT22;29556;50.846;4.442;2023-02-01T15:49:04;10.70;68.10
43894;DHT22;29556;50.846;4.442;2023-02-01T15:51:32;10.90;68.30
43894;DHT22;29556;50.846;4.442;2023-02-01T15:54:06;10.70;68.10
43894;DHT22;29556;50.846;4.442;2023-02-01T15:56:37;10.70;68.40
43894;DHT22;29556;50.846;4.442;2023-02-01T15:59:05;10.70;68.60
43894;DHT22;29556;50.846;4.442;2023-02-01T16:01:37;10.70;68.80
43894;DHT22;29556;50.846;4.442;2023-02-01T16:06:44;10.60;69.10
43894;DHT22;29556;50.846;4.442;2023-02-01T16:09:14;10.60;69.60
43894;DHT22;29556;50.846;4.442;2023-02-01T16:11:54;10.50;69.80
43894;DHT22;29556;50.846;4.442;2023-02-01T16:14:24;10.50;69.80
43894;DHT22;29556;50.846;4.442;2023-02-01T16:16:51;10.40;70.10
43894;DHT22;29556;50.846;4.442;2023-02-01T16:19:19;10.50;70.10
43894;DHT22;29556;50.846;4.442;2023-02-01T16:21:46;10.50;70.10
43894;DHT22;29556;50.846;4.442;2023-02-01T16:24:14;10.40;70.10
43894;DHT22;29556;50.846;4.442;2023-02-01T16:26:39;10.40;70.40
43894;DHT22;29556;50.846;4.442;2023-02-01T16:29:05;10.40;70.40
43894;DHT22;29556;50.846;4.442;2023-02-01T16:31:41;10.40;70.50
43894;DHT22;29556;50.846;4.442;2023-02-01T16:34:14;10.40;70.60
43894;DHT22;29556;50.846;4.442;2023-02-01T16:36:43;10.30;70.40
43894;DHT22;29556;50.846;4.442;2023-02-01T16:39:12;10.40;70.70
43894;DHT22;29556;50.846;4.442;2023-02-01T16:41:40;10.40;70.90
43894;DHT22;29556;50.846;4.442;2023-02-01T16:44:06;10.30;70.80
43894;DHT22;29556;50.846;4.442;2023-02-01T16:46:35;10.30;70.90
43894;DHT22;29556;50.846;4.442;2023-02-01T16:49:05;10.40;71.00
43894;DHT22;29556;50.846;4.442;2023-02-01T16:51:32;10.40;70.60
43894;DHT22;29556;50.846;4.442;2023-02-01T16:54:01;10.30;70.70
43894;DHT22;29556;50.846;4.442;2023-02-01T16:56:32;10.30;71.10
43894;DHT22;29556;50.846;4.442;2023-02-01T16:59:00;10.40;71.40
43894;DHT22;29556;50.846;4.442;2023-02-01T17:01:26;10.30;71.40
43894;DHT22;29556;50.846;4.442;2023-02-01T17:03:52;10.30;71.60
43894;DHT22;29556;50.846;4.442;2023-02-01T17:06:20;10.30;71.60
43894;DHT22;29556;50.846;4.442;2023-02-01T17:08:50;10.30;71.80
43894;DHT22;29556;50.846;4.442;2023-02-01T17:11:16;10.20;71.70
43894;DHT22;29556;50.846;4.442;2023-02-01T17:13:45;10.20;72.00
43894;DHT22;29556;50.846;4.442;2023-02-01T17:16:30;10.20;72.20
43894;DHT22;29556;50.846;4.442;2023-02-01T17:18:59;10.30;72.40
43894;DHT22;29556;50.846;4.442;2023-02-01T17:21:30;10.30;72.20
43894;DHT22;29556;50.846;4.442;2023-02-01T17:23:58;10.30;72.40
43894;DHT22;29556;50.846;4.442;2023-02-01T17:26:25;10.30;72.50
43894;DHT22;29556;50.846;4.442;2023-02-01T17:28:51;10.30;72.70
43894;DHT22;29556;50.846;4.442;2023-02-01T17:31:17;10.20;72.70
43894;DHT22;29556;50.846;4.442;2023-02-01T17:33:52;10.20;73.80
43894;DHT22;29556;50.846;4.442;2023-02-01T17:36:17;10.20;73.30
43894;DHT22;29556;50.846;4.442;2023-02-01T17:38:43;10.10;74.10
43894;DHT22;29556;50.846;4.442;2023-02-01T17:41:11;10.10;74.60
43894;DHT22;29556;50.846;4.442;2023-02-01T17:43:37;10.20;74.70
43894;DHT22;29556;50.846;4.442;2023-02-01T17:46:11;10.20;75.00
43894;DHT22;29556;50.846;4.442;2023-02-01T17:48:38;10.20;75.40
43894;DHT22;29556;50.846;4.442;2023-02-01T17:51:04;10.10;75.50
43894;DHT22;29556;50.846;4.442;2023-02-01T17:53:30;10.20;75.70
43894;DHT22;29556;50.846;4.442;2023-02-01T17:55:58;10.20;76.00
43894;DHT22;29556;50.846;4.442;2023-02-01T17:58:24;10.20;76.10
43894;DHT22;29556;50.846;4.442;2023-02-01T18:00:51;10.10;76.20
43894;DHT22;29556;50.846;4.442;2023-02-01T18:03:28;10.10;76.30
43894;DHT22;29556;50.846;4.442;2023-02-01T18:05:56;10.20;77.10
43894;DHT22;29556;50.846;4.442;2023-02-01T18:08:27;10.10;76.30
43894;DHT22;29556;50.846;4.442;2023-02-01T18:10:59;10.10;76.70
43894;DHT22;29556;50.846;4.442;2023-02-01T18:13:29;10.10;76.80
43894;DHT22;29556;50.846;4.442;2023-02-01T18:15:55;10.10;76.70
43894;DHT22;29556;50.846;4.442;2023-02-01T18:18:25;10.20;76.80
43894;DHT22;29556;50.846;4.442;2023-02-01T18:20:53;10.20;76.70
43894;DHT22;29556;50.846;4.442;2023-02-01T18:23:21;10.20;76.60
43894;DHT22;29556;50.846;4.442;2023-02-01T18:25:47;10.20;76.30